sensor_id;sensor_type;location;lat;lon;timestamp;pressure;altitude;pressure_sealevel;temperature;humidity
55263;BME280;41125;48.752;9.168;2023-02-16T00:00:19;97840.91;;;4.36;66.74
55263;BME280;41125;48.752;9.168;2023-02-16T00:00:53;97843.00;;;4.34;66.97
55263;BME280;41125;48.752;9.168;2023-02-16T00:01:29;97843.22;;;4.32;67.34
55263;BME280;41125;48.752;9.168;2023-02-16T00:02:00;97845.09;;;4.32;67.47
55263;BME280;41125;48.752;9.168;2023-02-16T00:02:32;97840.78;;;4.31;67.82
55263;BME280;41125;48.752;9.168;2023-02-16T00:03:03;97844.50;;;4.30;67.61
55263;BME280;41125;48.752;9.168;2023-02-16T00:03:34;97839.13;;;4.30;67.74
55263;BME280;41125;48.752;9.168;2023-02-16T00:04:22;97841.00;;;4.29;67.71
55263;BME280;41125;48.752;9.168;2023-02-16T00:04:54;97845.56;;;4.29;67.70
55263;BME280;41125;48.752;9.168;2023-02-16T00:05:30;97840.19;;;4.29;67.98
55263;BME280;41125;48.752;9.168;2023-02-16T00:06:02;97834.81;;;4.29;67.74
55263;BME280;41125;48.752;9.168;2023-02-16T00:06:33;97849.28;;;4.28;67.93
55263;BME280;41125;48.752;9.168;2023-02-16T00:07:05;97850.09;;;4.28;68.05
55263;BME280;41125;48.752;9.168;2023-02-16T00:07:36;97848.47;;;4.27;67.52
55263;BME280;41125;48.752;9.168;2023-02-16T00:08:07;97846.00;;;4.26;67.64
55263;BME280;41125;48.752;9.168;2023-02-16T00:08:42;97852.19;;;4.26;67.61
55263;BME280;41125;48.752;9.168;2023-02-16T00:09:14;97848.69;;;4.26;67.88
55263;BME280;41125;48.752;9.168;2023-02-16T00:09:46;97844.37;;;4.25;68.08
55263;BME280;41125;48.752;9.168;2023-02-16T00:10:17;97848.91;;;4.24;68.03
55263;BME280;41125;48.752;9.168;2023-02-16T00:10:49;97851.84;;;4.23;67.79
55263;BME280;41125;48.752;9.168;2023-02-16T00:11:39;97847.50;;;4.22;67.78
55263;BME280;41125;48.752;9.168;2023-02-16T00:12:28;97851.25;;;4.21;67.92
55263;BME280;41125;48.752;9.168;2023-02-16T00:13:23;97847.16;;;4.18;68.38
55263;BME280;41125;48.752;9.168;2023-02-16T00:14:16;97855.44;;;4.17;68.18
55263;BME280;41125;48.752;9.168;2023-02-16T00:14:47;97846.81;;;4.15;68.36
55263;BME280;41125;48.752;9.168;2023-02-16T00:15:19;97846.22;;;4.13;68.32
55263;BME280;41125;48.752;9.168;2023-02-16T00:15:51;97851.59;;;4.13;68.82
55263;BME280;41125;48.752;9.168;2023-02-16T00:16:23;97845.41;;;4.12;68.69
55263;BME280;41125;48.752;9.168;2023-02-16T00:16:56;97842.94;;;4.11;68.43
55263;BME280;41125;48.752;9.168;2023-02-16T00:17:28;97849.13;;;4.11;68.27
55263;BME280;41125;48.752;9.168;2023-02-16T00:18:01;97849.34;;;4.10;68.68
55263;BME280;41125;48.752;9.168;2023-02-16T00:18:34;97847.50;;;4.10;68.20
55263;BME280;41125;48.752;9.168;2023-02-16T00:19:21;97847.12;;;4.07;68.47
55263;BME280;41125;48.752;9.168;2023-02-16T00:19:53;97849.00;;;4.06;68.25
55263;BME280;41125;48.752;9.168;2023-02-16T00:20:40;97850.84;;;4.06;68.58
55263;BME280;41125;48.752;9.168;2023-02-16T00:21:12;97852.72;;;4.05;68.70
55263;BME280;41125;48.752;9.168;2023-02-16T00:21:44;97849.22;;;4.04;68.70
55263;BME280;41125;48.752;9.168;2023-02-16T00:22:16;97847.56;;;4.03;68.58
55263;BME280;41125;48.752;9.168;2023-02-16T00:22:47;97844.87;;;4.03;68.53
55263;BME280;41125;48.752;9.168;2023-02-16T00:23:19;97854.00;;;4.02;68.54
55263;BME280;41125;48.752;9.168;2023-02-16T00:23:50;97850.50;;;4.02;68.69
55263;BME280;41125;48.752;9.168;2023-02-16T00:24:23;97850.72;;;4.00;68.34
55263;BME280;41125;48.752;9.168;2023-02-16T00:24:57;97850.13;;;3.98;68.64
55263;BME280;41125;48.752;9.168;2023-02-16T00:25:28;97852.22;;;3.96;68.87
55263;BME280;41125;48.752;9.168;2023-02-16T00:26:00;97852.66;;;3.93;68.98
55263;BME280;41125;48.752;9.168;2023-02-16T00:26:33;97851.03;;;3.92;68.73
55263;BME280;41125;48.752;9.168;2023-02-16T00:27:12;97847.75;;;3.90;69.40
55263;BME280;41125;48.752;9.168;2023-02-16T00:27:45;97853.34;;;3.89;69.23
55263;BME280;41125;48.752;9.168;2023-02-16T00:28:18;97856.47;;;3.86;69.37
55263;BME280;41125;48.752;9.168;2023-02-16T00:28:55;97854.47;;;3.81;69.59
55263;BME280;41125;48.752;9.168;2023-02-16T00:29:33;97866.94;;;3.76;69.35
55263;BME280;41125;48.752;9.168;2023-02-16T00:30:18;97870.31;;;3.71;69.76
55263;BME280;41125;48.752;9.168;2023-02-16T00:30:49;97863.75;;;3.67;69.97
55263;BME280;41125;48.752;9.168;2023-02-16T00:31:26;97864.19;;;3.64;70.03
55263;BME280;41125;48.752;9.168;2023-02-16T00:32:00;97868.97;;;3.62;70.05
55263;BME280;41125;48.752;9.168;2023-02-16T00:32:31;97859.72;;;3.58;69.58
55263;BME280;41125;48.752;9.168;2023-02-16T00:33:17;97869.25;;;3.54;70.13
55263;BME280;41125;48.752;9.168;2023-02-16T00:33:49;97861.88;;;3.49;70.26
55263;BME280;41125;48.752;9.168;2023-02-16T00:34:38;97866.91;;;3.46;70.48
55263;BME280;41125;48.752;9.168;2023-02-16T00:35:15;97867.34;;;3.43;70.48
55263;BME280;41125;48.752;9.168;2023-02-16T00:35:48;97863.25;;;3.40;70.63
55263;BME280;41125;48.752;9.168;2023-02-16T00:36:20;97863.47;;;3.39;70.43
55263;BME280;41125;48.752;9.168;2023-02-16T00:36:51;97869.88;;;3.37;70.64
55263;BME280;41125;48.752;9.168;2023-02-16T00:37:23;97867.63;;;3.34;70.32
55263;BME280;41125;48.752;9.168;2023-02-16T00:37:57;97872.41;;;3.32;70.50
55263;BME280;41125;48.752;9.168;2023-02-16T00:38:28;97867.47;;;3.29;70.59
55263;BME280;41125;48.752;9.168;2023-02-16T00:39:00;97872.25;;;3.27;70.52
55263;BME280;41125;48.752;9.168;2023-02-16T00:39:31;97873.28;;;3.26;70.39
55263;BME280;41125;48.752;9.168;2023-02-16T00:40:04;97872.91;;;3.23;70.75
55263;BME280;41125;48.752;9.168;2023-02-16T00:40:35;97873.34;;;3.20;70.96
55263;BME280;41125;48.752;9.168;2023-02-16T00:41:15;97873.56;;;3.18;70.93
55263;BME280;41125;48.752;9.168;2023-02-16T00:42:26;97871.75;;;3.12;71.03
55263;BME280;41125;48.752;9.168;2023-02-16T00:43:01;97872.00;;;3.11;70.90
55263;BME280;41125;48.752;9.168;2023-02-16T00:43:33;97874.09;;;3.09;71.33
55263;BME280;41125;48.752;9.168;2023-02-16T00:44:15;97877.00;;;3.07;71.28
55263;BME280;41125;48.752;9.168;2023-02-16T00:44:51;97875.56;;;3.05;70.89
55263;BME280;41125;48.752;9.168;2023-02-16T00:45:26;97878.91;;;3.00;71.21
55263;BME280;41125;48.752;9.168;2023-02-16T00:45:57;97879.63;;;2.89;71.37
55263;BME280;41125;48.752;9.168;2023-02-16T00:46:29;97876.78;;;2.84;71.93
55263;BME280;41125;48.752;9.168;2023-02-16T00:47:18;97877.81;;;2.83;71.61
55263;BME280;41125;48.752;9.168;2023-02-16T00:47:51;97890.16;;;2.84;72.13
55263;BME280;41125;48.752;9.168;2023-02-16T00:48:24;97881.31;;;2.83;71.82
55263;BME280;41125;48.752;9.168;2023-02-16T00:48:55;97879.44;;;2.84;72.16
55263;BME280;41125;48.752;9.168;2023-02-16T00:49:27;97871.84;;;2.81;71.79
55263;BME280;41125;48.752;9.168;2023-02-16T00:49:59;97869.16;;;2.81;71.96
55263;BME280;41125;48.752;9.168;2023-02-16T00:50:32;97875.34;;;2.81;71.71
55263;BME280;41125;48.752;9.168;2023-02-16T00:51:04;97876.16;;;2.82;72.01
55263;BME280;41125;48.752;9.168;2023-02-16T00:51:36;97877.22;;;2.81;72.08
55263;BME280;41125;48.752;9.168;2023-02-16T00:53:19;97878.84;;;2.82;72.29
55263;BME280;41125;48.752;9.168;2023-02-16T00:53:50;97871.62;;;2.82;72.10
55263;BME280;41125;48.752;9.168;2023-02-16T00:54:22;97872.44;;;2.83;72.44
55263;BME280;41125;48.752;9.168;2023-02-16T00:54:54;97870.81;;;2.82;72.33
55263;BME280;41125;48.752;9.168;2023-02-16T00:55:33;97875.34;;;2.81;72.08
55263;BME280;41125;48.752;9.168;2023-02-16T00:56:09;97870.81;;;2.82;72.36
55263;BME280;41125;48.752;9.168;2023-02-16T00:56:44;97871.62;;;2.82;72.54
55263;BME280;41125;48.752;9.168;2023-02-16T00:57:17;97873.06;;;2.85;72.65
55263;BME280;41125;48.752;9.168;2023-02-16T00:57:58;97873.87;;;2.85;72.36
55263;BME280;41125;48.752;9.168;2023-02-16T00:58:33;97878.41;;;2.85;72.50
55263;BME280;41125;48.752;9.168;2023-02-16T00:59:07;97867.31;;;2.81;72.29
55263;BME280;41125;48.752;9.168;2023-02-16T00:59:42;97866.66;;;2.86;72.23
55263;BME280;41125;48.752;9.168;2023-02-16T01:00:32;97872.63;;;2.88;72.68
55263;BME280;41125;48.752;9.168;2023-02-16T01:01:12;97876.94;;;2.89;72.52
55263;BME280;41125;48.752;9.168;2023-02-16T01:01:45;97869.94;;;2.88;72.53
55263;BME280;41125;48.752;9.168;2023-02-16T01:02:17;97869.13;;;2.87;72.32
55263;BME280;41125;48.752;9.168;2023-02-16T01:02:50;97865.63;;;2.87;72.48
55263;BME280;41125;48.752;9.168;2023-02-16T01:03:26;97871.56;;;2.89;72.62
55263;BME280;41125;48.752;9.168;2023-02-16T01:04:01;97871.12;;;2.92;72.82
55263;BME280;41125;48.752;9.168;2023-02-16T01:04:33;97863.69;;;2.94;72.65
55263;BME280;41125;48.752;9.168;2023-02-16T01:05:07;97859.97;;;2.95;72.30
55263;BME280;41125;48.752;9.168;2023-02-16T01:05:38;97859.75;;;2.96;72.18
55263;BME280;41125;48.752;9.168;2023-02-16T01:06:10;97870.25;;;2.98;72.36
55263;BME280;41125;48.752;9.168;2023-02-16T01:07:00;97860.31;;;3.05;71.78
55263;BME280;41125;48.752;9.168;2023-02-16T01:07:49;97857.31;;;3.13;70.61
55263;BME280;41125;48.752;9.168;2023-02-16T01:08:41;97856.06;;;3.16;70.61
55263;BME280;41125;48.752;9.168;2023-02-16T01:09:30;97862.22;;;3.16;71.13
55263;BME280;41125;48.752;9.168;2023-02-16T01:10:21;97856.88;;;3.16;71.12
55263;BME280;41125;48.752;9.168;2023-02-16T01:11:11;97861.41;;;3.16;70.88
55263;BME280;41125;48.752;9.168;2023-02-16T01:11:46;97857.91;;;3.15;70.71
55263;BME280;41125;48.752;9.168;2023-02-16T01:12:18;97864.31;;;3.14;70.81
55263;BME280;41125;48.752;9.168;2023-02-16T01:12:50;97863.50;;;3.14;71.34
55263;BME280;41125;48.752;9.168;2023-02-16T01:13:23;97868.28;;;3.12;71.03
55263;BME280;41125;48.752;9.168;2023-02-16T01:13:57;97861.50;;;3.09;71.25
55263;BME280;41125;48.752;9.168;2023-02-16T01:14:29;97861.50;;;3.09;71.12
55263;BME280;41125;48.752;9.168;2023-02-16T01:15:02;97868.50;;;3.10;71.37
55263;BME280;41125;48.752;9.168;2023-02-16T01:15:35;97871.19;;;3.10;71.45
55263;BME280;41125;48.752;9.168;2023-02-16T01:16:21;97867.69;;;3.10;71.63
55263;BME280;41125;48.752;9.168;2023-02-16T01:16:53;97869.31;;;3.11;71.52
55263;BME280;41125;48.752;9.168;2023-02-16T01:17:24;97870.16;;;3.11;71.90
55263;BME280;41125;48.752;9.168;2023-02-16T01:17:55;97877.13;;;3.12;71.70
55263;BME280;41125;48.752;9.168;2023-02-16T01:18:26;97868.03;;;3.13;71.77
55263;BME280;41125;48.752;9.168;2023-02-16T01:18:58;97867.59;;;3.16;71.96
55263;BME280;41125;48.752;9.168;2023-02-16T01:19:29;97869.25;;;3.17;71.76
55263;BME280;41125;48.752;9.168;2023-02-16T01:20:00;97872.53;;;3.19;71.45
55263;BME280;41125;48.752;9.168;2023-02-16T01:20:32;97874.37;;;3.19;71.67
55263;BME280;41125;48.752;9.168;2023-02-16T01:21:05;97877.88;;;3.19;71.46
55263;BME280;41125;48.752;9.168;2023-02-16T01:21:37;97868.78;;;3.20;71.43
55263;BME280;41125;48.752;9.168;2023-02-16T01:22:10;97871.47;;;3.20;71.57
55263;BME280;41125;48.752;9.168;2023-02-16T01:22:41;97872.91;;;3.23;71.29
55263;BME280;41125;48.752;9.168;2023-02-16T01:23:13;97866.50;;;3.24;70.91
55263;BME280;41125;48.752;9.168;2023-02-16T01:23:44;97862.53;;;3.26;71.27
55263;BME280;41125;48.752;9.168;2023-02-16T01:24:16;97864.19;;;3.27;71.10
55263;BME280;41125;48.752;9.168;2023-02-16T01:24:47;97867.47;;;3.29;70.99
55263;BME280;41125;48.752;9.168;2023-02-16T01:25:22;97864.56;;;3.31;70.71
55263;BME280;41125;48.752;9.168;2023-02-16T01:25:55;97867.25;;;3.31;71.01
55263;BME280;41125;48.752;9.168;2023-02-16T01:26:27;97868.06;;;3.31;71.07
55263;BME280;41125;48.752;9.168;2023-02-16T01:26:59;97872.41;;;3.32;70.93
55263;BME280;41125;48.752;9.168;2023-02-16T01:27:31;97865.38;;;3.31;70.64
55263;BME280;41125;48.752;9.168;2023-02-16T01:28:13;97870.75;;;3.31;71.05
55263;BME280;41125;48.752;9.168;2023-02-16T01:28:47;97864.34;;;3.32;71.08
55263;BME280;41125;48.752;9.168;2023-02-16T01:29:20;97867.03;;;3.32;70.88
55263;BME280;41125;48.752;9.168;2023-02-16T01:29:51;97868.66;;;3.33;70.73
55263;BME280;41125;48.752;9.168;2023-02-16T01:30:27;97858.75;;;3.34;71.16
55263;BME280;41125;48.752;9.168;2023-02-16T01:30:59;97858.97;;;3.32;70.89
55263;BME280;41125;48.752;9.168;2023-02-16T01:31:30;97864.12;;;3.34;71.08
55263;BME280;41125;48.752;9.168;2023-02-16T01:32:02;97864.94;;;3.34;70.89
55263;BME280;41125;48.752;9.168;2023-02-16T01:32:34;97871.12;;;3.35;70.90
55263;BME280;41125;48.752;9.168;2023-02-16T01:33:07;97855.84;;;3.35;70.89
55263;BME280;41125;48.752;9.168;2023-02-16T01:33:39;97866.59;;;3.35;70.92
55263;BME280;41125;48.752;9.168;2023-02-16T01:34:11;97857.50;;;3.36;70.91
55263;BME280;41125;48.752;9.168;2023-02-16T01:34:43;97867.19;;;3.37;70.60
55263;BME280;41125;48.752;9.168;2023-02-16T01:35:14;97853.78;;;3.37;70.45
55263;BME280;41125;48.752;9.168;2023-02-16T01:35:49;97858.09;;;3.39;70.79
55263;BME280;41125;48.752;9.168;2023-02-16T01:36:52;97853.78;;;3.37;70.44
55263;BME280;41125;48.752;9.168;2023-02-16T01:37:22;97852.72;;;3.39;70.62
55263;BME280;41125;48.752;9.168;2023-02-16T01:37:54;97855.41;;;3.39;70.56
55263;BME280;41125;48.752;9.168;2023-02-16T01:38:27;97854.59;;;3.38;70.93
55263;BME280;41125;48.752;9.168;2023-02-16T01:38:59;97850.03;;;3.39;70.83
55263;BME280;41125;48.752;9.168;2023-02-16T01:39:31;97858.09;;;3.39;70.77
55263;BME280;41125;48.752;9.168;2023-02-16T01:40:05;97857.06;;;3.40;70.62
55263;BME280;41125;48.752;9.168;2023-02-16T01:40:41;97855.41;;;3.39;70.78
55263;BME280;41125;48.752;9.168;2023-02-16T01:41:29;97850.03;;;3.39;70.78
55263;BME280;41125;48.752;9.168;2023-02-16T01:42:51;97858.09;;;3.39;70.79
55263;BME280;41125;48.752;9.168;2023-02-16T01:43:43;97855.41;;;3.39;70.59
55263;BME280;41125;48.752;9.168;2023-02-16T01:44:20;97850.03;;;3.39;70.67
55263;BME280;41125;48.752;9.168;2023-02-16T01:44:58;97853.78;;;3.37;70.90
55263;BME280;41125;48.752;9.168;2023-02-16T01:45:33;97854.81;;;3.36;70.43
55263;BME280;41125;48.752;9.168;2023-02-16T01:46:11;97845.94;;;3.36;70.46
55263;BME280;41125;48.752;9.168;2023-02-16T01:46:50;97847.59;;;3.37;70.49
55263;BME280;41125;48.752;9.168;2023-02-16T01:47:45;97848.62;;;3.36;70.55
55263;BME280;41125;48.752;9.168;2023-02-16T01:48:25;97846.75;;;3.36;70.60
55263;BME280;41125;48.752;9.168;2023-02-16T01:48:56;97845.13;;;3.35;70.72
55263;BME280;41125;48.752;9.168;2023-02-16T01:49:31;97840.59;;;3.36;70.48
55263;BME280;41125;48.752;9.168;2023-02-16T01:50:23;97851.31;;;3.36;70.44
55263;BME280;41125;48.752;9.168;2023-02-16T01:51:18;97849.44;;;3.36;70.73
55263;BME280;41125;48.752;9.168;2023-02-16T01:52:12;97849.44;;;3.36;70.18
55263;BME280;41125;48.752;9.168;2023-02-16T01:52:58;97849.44;;;3.36;70.29
55263;BME280;41125;48.752;9.168;2023-02-16T01:53:43;97850.50;;;3.35;70.20
55263;BME280;41125;48.752;9.168;2023-02-16T01:54:35;97852.13;;;3.36;70.29
55263;BME280;41125;48.752;9.168;2023-02-16T01:55:26;97844.31;;;3.35;70.45
55263;BME280;41125;48.752;9.168;2023-02-16T01:56:03;97852.13;;;3.36;70.34
55263;BME280;41125;48.752;9.168;2023-02-16T01:56:42;97850.50;;;3.35;70.35
55263;BME280;41125;48.752;9.168;2023-02-16T01:58:55;97840.34;;;3.37;70.22
55263;BME280;41125;48.752;9.168;2023-02-16T02:00:00;97833.88;;;3.45;69.55
55263;BME280;41125;48.752;9.168;2023-02-16T02:02:03;97828.78;;;3.55;68.83
55263;BME280;41125;48.752;9.168;2023-02-16T02:02:39;97817.22;;;3.55;68.82
55263;BME280;41125;48.752;9.168;2023-02-16T02:03:21;97826.31;;;3.54;69.09
55263;BME280;41125;48.752;9.168;2023-02-16T02:04:34;97824.69;;;3.53;68.78
55263;BME280;41125;48.752;9.168;2023-02-16T02:05:28;97816.97;;;3.45;68.40
55263;BME280;41125;48.752;9.168;2023-02-16T02:06:13;97814.94;;;3.40;68.96
55263;BME280;41125;48.752;9.168;2023-02-16T02:06:45;97814.34;;;3.38;69.27
55263;BME280;41125;48.752;9.168;2023-02-16T02:07:25;97816.66;;;3.34;69.26
55263;BME280;41125;48.752;9.168;2023-02-16T02:09:48;97815.16;;;3.20;69.97
55263;BME280;41125;48.752;9.168;2023-02-16T02:11:45;97828.06;;;3.12;69.73
55263;BME280;41125;48.752;9.168;2023-02-16T02:13:46;97827.38;;;2.98;70.42
55263;BME280;41125;48.752;9.168;2023-02-16T02:14:26;97828.19;;;2.98;70.44
55263;BME280;41125;48.752;9.168;2023-02-16T02:15:10;97832.72;;;2.98;70.58
55263;BME280;41125;48.752;9.168;2023-02-16T02:15:41;97825.72;;;2.97;71.07
55263;BME280;41125;48.752;9.168;2023-02-16T02:16:16;97822.44;;;2.95;70.72
55263;BME280;41125;48.752;9.168;2023-02-16T02:16:58;97812.53;;;2.95;71.17
55263;BME280;41125;48.752;9.168;2023-02-16T02:17:31;97815.22;;;2.95;71.20
55263;BME280;41125;48.752;9.168;2023-02-16T02:18:03;97804.44;;;3.02;69.90
55263;BME280;41125;48.752;9.168;2023-02-16T02:18:34;97804.59;;;3.07;69.84
55263;BME280;41125;48.752;9.168;2023-02-16T02:19:06;97817.34;;;3.12;70.38
55263;BME280;41125;48.752;9.168;2023-02-16T02:19:50;97812.09;;;3.17;70.26
55263;BME280;41125;48.752;9.168;2023-02-16T02:26:40;97801.34;;;3.72;68.19
55263;BME280;41125;48.752;9.168;2023-02-16T02:27:31;97801.34;;;3.72;67.68
55263;BME280;41125;48.752;9.168;2023-02-16T02:33:25;97817.22;;;3.55;68.39
55263;BME280;41125;48.752;9.168;2023-02-16T02:34:17;97806.94;;;3.52;68.37
55263;BME280;41125;48.752;9.168;2023-02-16T02:36:35;97823.97;;;3.46;68.80
55263;BME280;41125;48.752;9.168;2023-02-16T02:37:20;97820.69;;;3.44;69.02
55263;BME280;41125;48.752;9.168;2023-02-16T02:38:24;97821.34;;;3.39;69.04
55263;BME280;41125;48.752;9.168;2023-02-16T02:39:24;97826.13;;;3.37;69.58
55263;BME280;41125;48.752;9.168;2023-02-16T02:43:56;97815.91;;;3.27;69.14
55263;BME280;41125;48.752;9.168;2023-02-16T02:44:41;97809.34;;;3.23;69.15
55263;BME280;41125;48.752;9.168;2023-02-16T02:45:20;97816.78;;;3.21;69.20
55263;BME280;41125;48.752;9.168;2023-02-16T02:46:14;97821.78;;;3.18;69.07
55263;BME280;41125;48.752;9.168;2023-02-16T02:46:47;97818.50;;;3.16;69.83
55263;BME280;41125;48.752;9.168;2023-02-16T02:47:20;97815.81;;;3.16;69.84
55263;BME280;41125;48.752;9.168;2023-02-16T02:47:51;97823.03;;;3.15;70.13
55263;BME280;41125;48.752;9.168;2023-02-16T02:48:22;97823.03;;;3.15;69.94
55263;BME280;41125;48.752;9.168;2023-02-16T02:48:53;97816.03;;;3.14;70.23
55263;BME280;41125;48.752;9.168;2023-02-16T02:49:25;97817.91;;;3.14;70.17
55263;BME280;41125;48.752;9.168;2023-02-16T02:49:59;97811.97;;;3.12;70.33
55263;BME280;41125;48.752;9.168;2023-02-16T02:52:00;97810.41;;;3.04;69.94
55263;BME280;41125;48.752;9.168;2023-02-16T02:52:32;97808.97;;;3.01;70.08
55263;BME280;41125;48.752;9.168;2023-02-16T02:53:09;97812.91;;;2.99;70.28
55263;BME280;41125;48.752;9.168;2023-02-16T02:54:09;97817.09;;;2.95;70.10
55263;BME280;41125;48.752;9.168;2023-02-16T02:54:59;97818.34;;;2.92;70.28
55263;BME280;41125;48.752;9.168;2023-02-16T02:55:50;97826.59;;;2.91;70.17
55263;BME280;41125;48.752;9.168;2023-02-16T02:56:48;97821.91;;;2.86;70.38
55263;BME280;41125;48.752;9.168;2023-02-16T02:57:44;97820.91;;;2.81;70.94
55263;BME280;41125;48.752;9.168;2023-02-16T02:58:38;97821.37;;;2.78;71.21
55263;BME280;41125;48.752;9.168;2023-02-16T03:00:03;97819.75;;;2.77;71.08
55263;BME280;41125;48.752;9.168;2023-02-16T03:00:54;97823.00;;;2.79;71.42
55263;BME280;41125;48.752;9.168;2023-02-16T03:01:26;97816.00;;;2.78;71.26
55263;BME280;41125;48.752;9.168;2023-02-16T03:01:59;97816.00;;;2.78;71.00
55263;BME280;41125;48.752;9.168;2023-02-16T03:02:32;97817.62;;;2.79;71.13
55263;BME280;41125;48.752;9.168;2023-02-16T03:04:05;97811.25;;;2.80;70.88
55263;BME280;41125;48.752;9.168;2023-02-16T03:04:38;97807.53;;;2.81;70.85
55263;BME280;41125;48.752;9.168;2023-02-16T03:05:12;97810.38;;;2.86;71.33
55263;BME280;41125;48.752;9.168;2023-02-16T03:05:53;97809.31;;;2.87;71.06
55263;BME280;41125;48.752;9.168;2023-02-16T03:06:30;97812.59;;;2.89;70.92
55263;BME280;41125;48.752;9.168;2023-02-16T03:07:05;97808.22;;;2.94;70.55
55263;BME280;41125;48.752;9.168;2023-02-16T03:07:39;97806.59;;;2.93;70.37
55263;BME280;41125;48.752;9.168;2023-02-16T03:08:23;97807.63;;;2.92;70.59
55263;BME280;41125;48.752;9.168;2023-02-16T03:09:07;97806.81;;;2.92;70.42
55263;BME280;41125;48.752;9.168;2023-02-16T03:09:42;97816.47;;;2.93;70.61
55263;BME280;41125;48.752;9.168;2023-02-16T03:10:20;97804.34;;;2.90;70.27
55263;BME280;41125;48.752;9.168;2023-02-16T03:11:14;97814.25;;;2.90;70.53
55263;BME280;41125;48.752;9.168;2023-02-16T03:12:07;97812.38;;;2.90;70.61
55263;BME280;41125;48.752;9.168;2023-02-16T03:12:59;97805.75;;;2.93;70.45
55263;BME280;41125;48.752;9.168;2023-02-16T03:13:38;97805.09;;;2.97;70.26
55263;BME280;41125;48.752;9.168;2023-02-16T03:15:19;97798.56;;;3.12;70.57
55263;BME280;41125;48.752;9.168;2023-02-16T03:15:55;97797.50;;;3.13;69.99
55263;BME280;41125;48.752;9.168;2023-02-16T03:16:43;97791.91;;;3.14;70.12
55263;BME280;41125;48.752;9.168;2023-02-16T03:17:18;97797.87;;;3.16;70.19
55263;BME280;41125;48.752;9.168;2023-02-16T03:18:10;97793.94;;;3.19;69.92
55263;BME280;41125;48.752;9.168;2023-02-16T03:19:01;97802.78;;;3.19;69.83
55263;BME280;41125;48.752;9.168;2023-02-16T03:19:51;97798.25;;;3.20;69.76
55263;BME280;41125;48.752;9.168;2023-02-16T03:20:41;97797.44;;;3.19;69.87
55263;BME280;41125;48.752;9.168;2023-02-16T03:21:32;97795.78;;;3.18;70.11
55263;BME280;41125;48.752;9.168;2023-02-16T03:22:23;97802.78;;;3.19;69.80
55263;BME280;41125;48.752;9.168;2023-02-16T03:23:12;97802.78;;;3.19;69.66
55263;BME280;41125;48.752;9.168;2023-02-16T03:24:04;97795.34;;;3.21;69.73
55263;BME280;41125;48.752;9.168;2023-02-16T03:24:55;97797.81;;;3.23;69.88
55263;BME280;41125;48.752;9.168;2023-02-16T03:25:45;97794.91;;;3.24;69.55
55263;BME280;41125;48.752;9.168;2023-02-16T03:26:35;97793.84;;;3.25;69.75
55263;BME280;41125;48.752;9.168;2023-02-16T03:27:31;97790.72;;;3.28;69.95
55263;BME280;41125;48.752;9.168;2023-02-16T03:28:25;97792.38;;;3.29;69.67
55263;BME280;41125;48.752;9.168;2023-02-16T03:29:16;97795.88;;;3.30;69.70
55263;BME280;41125;48.752;9.168;2023-02-16T03:29:50;97796.69;;;3.30;69.88
55263;BME280;41125;48.752;9.168;2023-02-16T03:30:23;97801.00;;;3.31;69.55
55263;BME280;41125;48.752;9.168;2023-02-16T03:30:56;97797.28;;;3.32;69.69
55263;BME280;41125;48.752;9.168;2023-02-16T03:31:37;97794.59;;;3.32;69.85
55263;BME280;41125;48.752;9.168;2023-02-16T03:32:09;97801.59;;;3.33;69.58
55263;BME280;41125;48.752;9.168;2023-02-16T03:32:41;97797.28;;;3.32;69.58
55263;BME280;41125;48.752;9.168;2023-02-16T03:33:13;97799.75;;;3.34;69.51
55263;BME280;41125;48.752;9.168;2023-02-16T03:33:46;97800.56;;;3.34;69.75
55263;BME280;41125;48.752;9.168;2023-02-16T03:34:25;97794.97;;;3.36;69.85
55263;BME280;41125;48.752;9.168;2023-02-16T03:34:56;97795.56;;;3.38;69.68
55263;BME280;41125;48.752;9.168;2023-02-16T03:35:28;97791.63;;;3.41;69.97
55263;BME280;41125;48.752;9.168;2023-02-16T03:36:00;97794.31;;;3.41;69.61
55263;BME280;41125;48.752;9.168;2023-02-16T03:36:37;97792.22;;;3.43;69.60
55263;BME280;41125;48.752;9.168;2023-02-16T03:37:11;97797.59;;;3.43;69.16
55263;BME280;41125;48.752;9.168;2023-02-16T03:37:44;97789.31;;;3.44;69.20
55263;BME280;41125;48.752;9.168;2023-02-16T03:38:15;97795.03;;;3.48;69.08
55263;BME280;41125;48.752;9.168;2023-02-16T03:38:47;97789.22;;;3.51;69.47
55263;BME280;41125;48.752;9.168;2023-02-16T03:39:19;97800.53;;;3.53;69.47
55263;BME280;41125;48.752;9.168;2023-02-16T03:39:50;97790.41;;;3.55;69.54
55263;BME280;41125;48.752;9.168;2023-02-16T03:40:42;97790.75;;;3.58;69.25
55263;BME280;41125;48.752;9.168;2023-02-16T03:41:15;97795.91;;;3.60;69.42
55263;BME280;41125;48.752;9.168;2023-02-16T03:41:49;97784.34;;;3.59;68.87
55263;BME280;41125;48.752;9.168;2023-02-16T03:42:22;97793.22;;;3.60;69.12
55263;BME280;41125;48.752;9.168;2023-02-16T03:43:05;97798.13;;;3.63;68.89
55263;BME280;41125;48.752;9.168;2023-02-16T03:43:36;97794.41;;;3.64;68.85
55263;BME280;41125;48.752;9.168;2023-02-16T03:44:08;97790.69;;;3.65;68.93
55263;BME280;41125;48.752;9.168;2023-02-16T03:44:39;97795.00;;;3.66;69.33
55263;BME280;41125;48.752;9.168;2023-02-16T03:45:14;97801.41;;;3.65;69.21
55263;BME280;41125;48.752;9.168;2023-02-16T03:45:46;97791.50;;;3.65;69.36
55263;BME280;41125;48.752;9.168;2023-02-16T03:46:18;97796.06;;;3.65;69.28
55263;BME280;41125;48.752;9.168;2023-02-16T03:46:50;97788.00;;;3.65;69.30
55263;BME280;41125;48.752;9.168;2023-02-16T03:47:21;97785.53;;;3.63;68.93
55263;BME280;41125;48.752;9.168;2023-02-16T03:47:53;97793.59;;;3.63;69.39
55263;BME280;41125;48.752;9.168;2023-02-16T03:48:24;97792.78;;;3.63;69.04
55263;BME280;41125;48.752;9.168;2023-02-16T03:48:58;97797.31;;;3.62;68.82
55263;BME280;41125;48.752;9.168;2023-02-16T03:49:29;97792.78;;;3.63;69.41
55263;BME280;41125;48.752;9.168;2023-02-16T03:50:00;97792.78;;;3.63;69.68
55263;BME280;41125;48.752;9.168;2023-02-16T03:50:32;97793.59;;;3.63;69.45
55263;BME280;41125;48.752;9.168;2023-02-16T03:51:04;97796.06;;;3.65;69.68
55263;BME280;41125;48.752;9.168;2023-02-16T03:51:35;97795.81;;;3.66;69.10
55263;BME280;41125;48.752;9.168;2023-02-16T03:52:06;97796.41;;;3.68;69.44
55263;BME280;41125;48.752;9.168;2023-02-16T03:52:38;97795.59;;;3.68;69.35